createdAt,value
2018-05-13T00:00:40.316Z,80.30
2018-05-13T00:03:16.610Z,80.00
2018-05-13T00:05:53.140Z,80.00
2018-05-13T00:08:29.676Z,80.30
2018-05-13T00:11:05.668Z,80.60
2018-05-13T00:13:42.088Z,80.60
2018-05-13T00:16:18.745Z,81.00
2018-05-13T00:18:55.743Z,80.70
2018-05-13T00:21:32.457Z,80.30
2018-05-13T00:24:09.204Z,80.30
2018-05-13T00:26:45.529Z,80.20
2018-05-13T00:29:22.438Z,80.60
2018-05-13T00:31:58.623Z,80.60
2018-05-13T00:34:35.469Z,80.80
2018-05-13T00:37:12.767Z,80.80
2018-05-13T00:39:49.138Z,80.80
2018-05-13T00:42:26.109Z,80.80
2018-05-13T00:45:03.349Z,80.70
2018-05-13T00:47:39.716Z,81.00
2018-05-13T00:50:17.015Z,81.30
2018-05-13T00:52:54.397Z,81.50
2018-05-13T00:55:31.239Z,81.60
2018-05-13T00:58:09.244Z,82.00
2018-05-13T01:00:46.579Z,82.10
2018-05-13T01:03:23.812Z,82.00
2018-05-13T01:06:01.674Z,82.30
2018-05-13T01:08:38.361Z,82.50
2018-05-13T01:11:15.020Z,82.60
2018-05-13T01:13:52.410Z,82.80
2018-05-13T01:16:28.960Z,82.90
2018-05-13T01:19:04.805Z,82.80
2018-05-13T01:21:42.006Z,82.80
2018-05-13T01:24:18.680Z,82.80
2018-05-13T01:26:55.997Z,82.90
2018-05-13T01:29:32.954Z,83.10
2018-05-13T01:35:18.186Z,82.60
2018-05-13T01:37:55.532Z,82.60
2018-05-13T01:40:31.848Z,82.80
2018-05-13T01:43:09.171Z,83.10
2018-05-13T01:45:47.209Z,83.10
2018-05-13T01:48:23.522Z,83.10
2018-05-13T01:50:59.934Z,82.70
2018-05-13T01:53:37.718Z,82.80
2018-05-13T01:56:14.654Z,82.40
2018-05-13T01:58:51.667Z,82.70
2018-05-13T02:01:29.015Z,83.10
2018-05-13T02:04:05.633Z,83.10
2018-05-13T02:06:42.622Z,83.40
2018-05-13T02:09:19.884Z,83.70
2018-05-13T02:11:57.200Z,83.40
2018-05-13T02:14:35.097Z,83.60
2018-05-13T02:17:12.068Z,83.50
2018-05-13T02:19:50.697Z,83.80
2018-05-13T02:22:29.397Z,83.40
2018-05-13T02:25:06.127Z,83.50
2018-05-13T02:27:44.714Z,84.80
2018-05-13T02:30:21.889Z,84.70
2018-05-13T02:32:59.156Z,84.30
2018-05-13T02:35:37.085Z,84.00
2018-05-13T02:38:15.639Z,83.60
2018-05-13T02:40:52.118Z,83.80
2018-05-13T02:43:28.745Z,83.70
2018-05-13T02:46:04.946Z,83.40
2018-05-13T02:48:42.265Z,83.80
2018-05-13T02:51:19.591Z,84.10
2018-05-13T02:53:57.285Z,83.80
2018-05-13T02:56:34.353Z,84.10
2018-05-13T02:59:10.968Z,84.40
2018-05-13T03:01:48.273Z,84.40
2018-05-13T03:04:24.784Z,84.10
2018-05-13T03:07:02.173Z,84.00
2018-05-13T03:09:38.642Z,84.10
2018-05-13T03:12:15.468Z,84.10
2018-05-13T03:14:53.004Z,84.10
2018-05-13T03:17:30.448Z,83.80
2018-05-13T03:20:07.891Z,83.90
2018-05-13T03:22:45.106Z,83.70
2018-05-13T03:25:22.151Z,83.70
2018-05-13T03:27:58.819Z,83.80
2018-05-13T03:30:35.801Z,83.90
2018-05-13T03:33:13.704Z,83.70
2018-05-13T03:35:52.018Z,84.20
2018-05-13T03:38:28.295Z,84.20
2018-05-13T03:41:04.969Z,84.10
2018-05-13T03:43:42.006Z,83.90
2018-05-13T03:46:19.854Z,83.70
2018-05-13T03:48:56.194Z,83.50
2018-05-13T03:51:33.488Z,83.40
2018-05-13T03:54:10.474Z,83.30
2018-05-13T03:56:47.136Z,83.10
2018-05-13T03:59:25.038Z,82.70
2018-05-13T04:02:01.596Z,82.40
2018-05-13T04:04:40.825Z,82.30
2018-05-13T04:07:17.523Z,82.40
2018-05-13T04:10:13.717Z,82.70
2018-05-13T04:16:04.504Z,82.30
2018-05-13T04:18:41.365Z,81.90
2018-05-13T04:21:18.294Z,81.70
2018-05-13T04:23:56.256Z,81.20
2018-05-13T04:26:33.477Z,80.50
2018-05-13T04:29:12.821Z,79.80
2018-05-13T04:31:50.521Z,79.20
2018-05-13T04:34:28.044Z,78.70
2018-05-13T04:37:06.390Z,78.20
2018-05-13T04:39:43.350Z,78.40
2018-05-13T04:42:20.670Z,78.30
2018-05-13T04:44:58.588Z,78.10
2018-05-13T04:47:36.487Z,77.80
2018-05-13T04:50:14.985Z,77.10
2018-05-13T04:52:52.844Z,76.00
2018-05-13T04:55:30.440Z,75.30
2018-05-13T04:58:07.921Z,74.60
2018-05-13T05:00:44.851Z,73.20
2018-05-13T05:03:24.141Z,72.20
2018-05-13T05:06:00.864Z,72.10
2018-05-13T05:08:39.324Z,72.00
2018-05-13T05:11:15.996Z,71.00
2018-05-13T05:13:53.289Z,70.60
2018-05-13T05:16:30.561Z,70.70
2018-05-13T05:19:07.255Z,70.20
2018-05-13T05:21:45.580Z,70.20
2018-05-13T05:24:23.038Z,69.20
2018-05-13T05:27:00.645Z,68.80
2018-05-13T05:29:37.323Z,68.70
2018-05-13T05:32:13.497Z,69.20
2018-05-13T05:34:50.677Z,69.40
2018-05-13T05:37:28.519Z,68.20
2018-05-13T05:40:09.278Z,67.60
2018-05-13T05:42:46.194Z,67.60
2018-05-13T05:45:23.056Z,67.10
2018-05-13T05:48:01.814Z,67.20
2018-05-13T05:50:38.990Z,68.10
2018-05-13T05:53:17.539Z,68.00
2018-05-13T05:55:54.928Z,67.20
2018-05-13T05:58:31.478Z,67.30
2018-05-13T06:01:08.972Z,67.50
2018-05-13T06:03:46.945Z,67.30
2018-05-13T06:06:23.656Z,67.50
2018-05-13T06:09:01.828Z,66.90
2018-05-13T06:11:38.669Z,65.50
2018-05-13T06:14:17.710Z,65.20
2018-05-13T06:16:55.220Z,64.40
2018-05-13T06:19:31.328Z,64.60
2018-05-13T06:22:10.545Z,64.00
2018-05-13T06:24:48.418Z,64.00
2018-05-13T06:27:25.691Z,63.00
2018-05-13T06:30:02.333Z,63.20
2018-05-13T06:32:39.321Z,62.80
2018-05-13T06:35:15.921Z,62.30
2018-05-13T06:37:53.704Z,61.40
2018-05-13T06:40:32.092Z,60.90
2018-05-13T06:43:09.645Z,60.20
2018-05-13T06:45:46.637Z,58.50
2018-05-13T06:48:23.354Z,58.20
2018-05-13T06:51:02.454Z,56.90
2018-05-13T06:53:39.793Z,57.50
2018-05-13T06:56:16.883Z,57.70
2018-05-13T06:58:53.999Z,57.20
2018-05-13T07:01:32.609Z,56.30
2018-05-13T07:04:08.917Z,54.50
2018-05-13T07:06:45.562Z,53.50
2018-05-13T07:09:22.546Z,52.70
2018-05-13T07:11:59.021Z,53.10
2018-05-13T07:14:36.197Z,53.10
2018-05-13T07:17:12.325Z,52.80
2018-05-13T07:19:49.585Z,52.20
2018-05-13T07:22:27.989Z,51.90
2018-05-13T07:25:04.941Z,51.20
2018-05-13T07:27:42.593Z,51.10
2018-05-13T07:30:20.368Z,48.80
2018-05-13T07:32:57.893Z,48.90
2018-05-13T07:35:35.110Z,48.40
2018-05-13T07:38:13.034Z,47.30
2018-05-13T07:40:49.953Z,46.80
2018-05-13T07:43:31.140Z,44.60
2018-05-13T07:46:09.250Z,46.00
2018-05-13T07:48:47.249Z,43.20
2018-05-13T07:51:24.337Z,41.90
2018-05-13T07:54:01.308Z,40.20
2018-05-13T07:56:38.286Z,36.40
2018-05-13T07:59:16.234Z,33.80
2018-05-13T08:01:53.229Z,30.90
2018-05-13T08:04:30.819Z,30.00
2018-05-13T08:07:09.349Z,28.30
2018-05-13T08:09:47.151Z,26.90
2018-05-13T08:12:25.702Z,27.30
2018-05-13T08:15:04.203Z,28.30
2018-05-13T08:17:41.516Z,28.20
2018-05-13T08:20:18.949Z,27.20
2018-05-13T08:22:57.305Z,26.70
2018-05-13T08:25:35.233Z,27.70
2018-05-13T08:28:12.321Z,27.40
2018-05-13T08:30:49.482Z,26.50
2018-05-13T08:33:27.074Z,26.50
2018-05-13T08:36:03.838Z,26.60
2018-05-13T08:38:40.704Z,27.90
2018-05-13T08:41:18.751Z,28.50
2018-05-13T08:43:55.918Z,27.60
2018-05-13T08:46:33.474Z,26.60
2018-05-13T08:49:11.724Z,25.70
2018-05-13T08:51:49.290Z,26.50
2018-05-13T08:54:26.889Z,26.60
2018-05-13T08:57:03.553Z,26.40
2018-05-13T08:59:40.769Z,26.90
2018-05-13T09:02:18.474Z,26.30
2018-05-13T09:04:55.384Z,25.50
2018-05-13T09:07:34.350Z,25.10
2018-05-13T09:10:11.881Z,25.00
2018-05-13T09:12:50.576Z,26.10
2018-05-13T09:15:28.890Z,26.20
2018-05-13T09:18:07.017Z,25.80
2018-05-13T09:20:44.343Z,25.90
2018-05-13T09:23:22.232Z,26.50
2018-05-13T09:25:58.774Z,27.20
2018-05-13T09:28:35.663Z,27.70
2018-05-13T09:31:12.900Z,26.30
2018-05-13T09:33:50.187Z,26.30
2018-05-13T09:36:26.657Z,26.30
2018-05-13T09:39:05.781Z,26.20
2018-05-13T09:41:44.674Z,27.70
2018-05-13T09:44:22.333Z,27.70
2018-05-13T09:46:58.986Z,27.00
2018-05-13T09:49:36.079Z,28.10
2018-05-13T09:52:12.893Z,27.20
2018-05-13T09:54:49.720Z,26.10
2018-05-13T09:57:27.935Z,24.50
2018-05-13T10:00:04.637Z,25.00
2018-05-13T10:02:41.534Z,25.80
2018-05-13T10:05:21.640Z,23.00
2018-05-13T10:07:59.113Z,22.50
2018-05-13T10:10:36.409Z,23.40
2018-05-13T10:13:13.727Z,22.70
2018-05-13T10:15:51.686Z,21.90
2018-05-13T10:18:29.315Z,21.70
2018-05-13T10:21:07.129Z,20.70
2018-05-13T10:23:44.069Z,21.00
2018-05-13T10:26:20.056Z,19.80
2018-05-13T10:28:56.956Z,19.10
2018-05-13T10:31:35.094Z,19.40
2018-05-13T10:34:13.336Z,20.10
2018-05-13T10:36:51.239Z,18.60
2018-05-13T10:39:27.840Z,19.20
2018-05-13T10:42:05.566Z,18.10
2018-05-13T10:44:44.158Z,17.70
2018-05-13T10:47:21.123Z,17.60
2018-05-13T10:49:57.973Z,18.70
2018-05-13T10:52:34.774Z,19.20
2018-05-13T10:55:11.633Z,20.50
2018-05-13T10:57:48.969Z,19.00
2018-05-13T11:00:25.279Z,19.20
2018-05-13T11:03:02.170Z,20.10
2018-05-13T11:05:40.598Z,19.30
2018-05-13T11:08:18.456Z,18.40
2018-05-13T11:10:55.257Z,19.80
2018-05-13T11:13:32.246Z,19.40
2018-05-13T11:16:09.314Z,18.70
2018-05-13T11:18:46.869Z,18.20
2018-05-13T11:21:24.497Z,17.60
2018-05-13T11:24:03.520Z,18.20
2018-05-13T11:26:41.254Z,19.50
2018-05-13T11:29:17.869Z,18.80
2018-05-13T11:31:54.842Z,20.00
2018-05-13T11:34:31.563Z,17.60
2018-05-13T11:37:08.531Z,17.40
2018-05-13T11:39:45.584Z,17.10
2018-05-13T11:42:23.490Z,17.80
2018-05-13T11:45:01.605Z,17.90
2018-05-13T11:47:38.091Z,18.80
2018-05-13T11:50:15.936Z,17.60
2018-05-13T11:52:52.810Z,18.90
2018-05-13T11:55:30.574Z,19.00
2018-05-13T11:58:08.775Z,18.50
2018-05-13T12:00:45.966Z,18.90
2018-05-13T12:03:23.313Z,20.10
2018-05-13T12:06:01.098Z,19.20
2018-05-13T12:08:39.458Z,19.80
2018-05-13T12:11:16.140Z,21.20
2018-05-13T12:13:53.909Z,21.40
2018-05-13T12:16:31.192Z,22.00
2018-05-13T12:19:07.933Z,21.00
2018-05-13T12:21:45.914Z,20.80
2018-05-13T12:24:23.783Z,18.90
2018-05-13T12:27:01.884Z,20.30
2018-05-13T12:29:39.857Z,19.80
2018-05-13T12:32:17.724Z,20.80
2018-05-13T12:34:56.122Z,20.60
2018-05-13T12:37:33.701Z,20.20
2018-05-13T12:40:10.657Z,18.90
2018-05-13T12:42:47.372Z,19.90
2018-05-13T12:45:25.033Z,19.50
2018-05-13T12:48:01.502Z,19.50
2018-05-13T12:50:39.742Z,19.50
2018-05-13T12:53:16.589Z,21.10
2018-05-13T12:55:52.922Z,20.60
2018-05-13T12:58:29.606Z,20.40
2018-05-13T13:01:07.727Z,20.50
2018-05-13T13:03:44.413Z,20.20
2018-05-13T13:06:21.497Z,20.70
2018-05-13T13:08:59.594Z,20.80
2018-05-13T13:11:36.681Z,20.10
2018-05-13T13:14:13.634Z,20.70
2018-05-13T13:16:50.329Z,21.60
2018-05-13T13:19:27.621Z,22.00
2018-05-13T13:22:06.134Z,22.90
2018-05-13T13:24:43.696Z,22.20
2018-05-13T13:27:20.712Z,22.70
2018-05-13T13:29:57.886Z,23.20
2018-05-13T13:32:34.521Z,23.20
2018-05-13T13:35:11.007Z,23.20
2018-05-13T13:37:47.591Z,23.80
2018-05-13T13:40:24.672Z,23.10
2018-05-13T13:43:02.278Z,23.10
2018-05-13T13:45:38.511Z,23.40
2018-05-13T13:48:16.383Z,22.90
2018-05-13T13:50:53.825Z,23.10
2018-05-13T13:53:30.614Z,22.70
2018-05-13T13:56:07.999Z,22.10
2018-05-13T13:58:45.096Z,23.00
2018-05-13T14:01:22.677Z,23.10
2018-05-13T14:03:59.969Z,23.20
2018-05-13T14:06:36.736Z,23.70
2018-05-13T14:09:14.601Z,23.50
2018-05-13T14:11:52.434Z,23.80
2018-05-13T14:14:28.907Z,24.60
2018-05-13T14:17:07.377Z,24.30
2018-05-13T14:19:45.454Z,25.00
2018-05-13T14:22:23.097Z,25.90
2018-05-13T14:25:00.217Z,26.00
2018-05-13T14:27:37.450Z,26.40
2018-05-13T14:30:16.626Z,25.60
2018-05-13T14:32:54.417Z,25.50
2018-05-13T14:35:32.455Z,25.70
2018-05-13T14:38:09.258Z,27.30
2018-05-13T14:40:46.687Z,25.30
2018-05-13T14:43:24.553Z,25.70
2018-05-13T14:46:01.181Z,25.60
2018-05-13T14:48:37.860Z,26.30
2018-05-13T14:51:14.571Z,26.70
2018-05-13T14:53:52.608Z,26.80
2018-05-13T14:56:31.944Z,27.10
2018-05-13T14:59:10.366Z,27.80
2018-05-13T15:01:47.847Z,27.80
2018-05-13T15:04:24.367Z,27.90
2018-05-13T15:07:01.390Z,29.40
2018-05-13T15:09:39.681Z,28.70
2018-05-13T15:12:17.717Z,29.10
2018-05-13T15:14:56.201Z,29.20
2018-05-13T15:17:33.513Z,30.20
2018-05-13T15:20:10.493Z,29.60
2018-05-13T15:22:47.437Z,29.10
2018-05-13T15:25:23.701Z,29.80
2018-05-13T15:28:01.442Z,28.60
2018-05-13T15:30:38.737Z,28.80
2018-05-13T15:33:16.637Z,29.70
2018-05-13T15:35:53.610Z,29.60
2018-05-13T15:38:30.593Z,29.40
2018-05-13T15:41:07.577Z,30.00
2018-05-13T15:43:44.587Z,30.00
2018-05-13T15:46:20.888Z,29.80
2018-05-13T15:48:57.633Z,30.30
2018-05-13T15:51:35.471Z,30.30
2018-05-13T15:54:12.017Z,31.10
2018-05-13T15:56:49.752Z,30.90
2018-05-13T15:59:26.092Z,31.60
2018-05-13T16:02:02.763Z,31.20
2018-05-13T16:04:41.231Z,30.90
2018-05-13T16:07:19.533Z,31.00
2018-05-13T16:09:56.193Z,32.70
2018-05-13T16:12:34.733Z,31.30
2018-05-13T16:15:12.266Z,31.50
2018-05-13T16:17:49.980Z,31.20
2018-05-13T16:20:27.570Z,31.10
2018-05-13T16:23:05.037Z,31.00
2018-05-13T16:25:43.360Z,30.40
2018-05-13T16:28:19.740Z,30.70
2018-05-13T16:30:57.305Z,31.00
2018-05-13T16:33:35.322Z,30.40
2018-05-13T16:36:11.477Z,30.30
2018-05-13T16:38:49.721Z,30.70
2018-05-13T16:41:26.687Z,31.10
2018-05-13T16:44:04.637Z,31.40
2018-05-13T16:46:41.263Z,31.70
2018-05-13T16:49:18.843Z,31.70
2018-05-13T16:51:55.256Z,31.60
2018-05-13T16:54:32.424Z,31.80
2018-05-13T16:57:10.241Z,31.70
2018-05-13T16:59:47.068Z,32.00
2018-05-13T17:02:23.827Z,32.20
2018-05-13T17:05:01.645Z,32.30
2018-05-13T17:07:37.806Z,32.40
2018-05-13T17:10:15.602Z,32.60
2018-05-13T17:12:53.023Z,33.00
2018-05-13T17:15:31.632Z,32.80
2018-05-13T17:18:09.197Z,32.80
2018-05-13T17:20:45.155Z,32.90
2018-05-13T17:23:22.275Z,32.90
2018-05-13T17:25:59.061Z,32.70
2018-05-13T17:28:36.043Z,32.30
2018-05-13T17:31:12.692Z,32.80
2018-05-13T17:33:51.317Z,33.20
2018-05-13T17:36:28.308Z,33.20
2018-05-13T17:39:03.926Z,33.80
2018-05-13T17:41:40.865Z,33.50
2018-05-13T17:44:17.584Z,33.30
2018-05-13T17:46:54.257Z,33.70
2018-05-13T17:49:31.864Z,33.50
2018-05-13T17:52:10.484Z,33.40
2018-05-13T17:54:48.636Z,33.30
2018-05-13T17:57:29.940Z,33.60
2018-05-13T18:00:06.481Z,33.80
2018-05-13T18:02:45.354Z,34.00
2018-05-13T18:05:23.669Z,33.60
2018-05-13T18:08:02.119Z,33.50
2018-05-13T18:10:38.437Z,34.10
2018-05-13T18:13:14.811Z,34.30
2018-05-13T18:15:51.768Z,34.10
2018-05-13T18:18:29.834Z,34.30
2018-05-13T18:21:06.864Z,34.80
2018-05-13T18:23:44.007Z,34.90
2018-05-13T18:26:21.781Z,34.80
2018-05-13T18:28:58.239Z,34.70
2018-05-13T18:31:36.160Z,35.10
2018-05-13T18:34:13.105Z,35.30
2018-05-13T18:36:50.803Z,35.30
2018-05-13T18:39:27.233Z,35.20
2018-05-13T18:42:03.548Z,35.90
2018-05-13T18:44:40.761Z,34.90
2018-05-13T18:47:18.932Z,35.40
2018-05-13T18:49:56.283Z,35.40
2018-05-13T18:52:34.260Z,35.40
2018-05-13T18:55:11.332Z,36.00
2018-05-13T18:57:49.099Z,36.20
2018-05-13T19:00:25.720Z,36.50
2018-05-13T19:03:03.625Z,36.10
2018-05-13T19:05:40.179Z,35.90
2018-05-13T19:08:17.271Z,36.20
2018-05-13T19:10:54.995Z,36.60
2018-05-13T19:13:34.240Z,36.40
2018-05-13T19:16:11.218Z,36.40
2018-05-13T19:18:47.481Z,36.20
2018-05-13T19:21:24.193Z,36.20
2018-05-13T19:24:01.304Z,36.50
2018-05-13T19:26:37.432Z,36.80
2018-05-13T19:29:16.759Z,36.50
2018-05-13T19:31:53.486Z,36.70
2018-05-13T19:34:30.000Z,37.40
2018-05-13T19:37:08.014Z,37.30
2018-05-13T19:39:44.533Z,37.80
2018-05-13T19:42:22.561Z,37.80
2018-05-13T19:44:59.010Z,37.80
2018-05-13T19:47:35.182Z,38.00
2018-05-13T19:50:13.532Z,37.90
2018-05-13T19:52:49.860Z,38.10
2018-05-13T19:55:26.184Z,38.30
2018-05-13T19:58:05.783Z,38.40
2018-05-13T20:00:42.751Z,38.50
2018-05-13T20:03:21.772Z,38.30
2018-05-13T20:05:57.961Z,38.40
2018-05-13T20:08:35.077Z,38.60
2018-05-13T20:11:12.027Z,38.90
2018-05-13T20:13:48.010Z,38.70
2018-05-13T20:16:24.533Z,38.80
2018-05-13T20:19:02.133Z,38.90
2018-05-13T20:21:39.108Z,38.90
2018-05-13T20:24:16.206Z,39.20
2018-05-13T20:26:53.735Z,39.40
2018-05-13T20:29:32.197Z,39.40
2018-05-13T20:32:07.925Z,39.50
2018-05-13T20:34:45.222Z,39.80
2018-05-13T20:37:22.998Z,40.10
2018-05-13T20:40:00.249Z,40.40
2018-05-13T20:42:36.878Z,40.30
2018-05-13T20:45:14.306Z,40.60
2018-05-13T20:47:51.106Z,41.10
2018-05-13T20:50:28.802Z,41.20
2018-05-13T20:53:05.759Z,41.40
2018-05-13T20:55:42.964Z,41.50
2018-05-13T20:58:20.617Z,41.90
2018-05-13T21:00:58.369Z,41.90
2018-05-13T21:03:35.110Z,42.20
2018-05-13T21:06:12.081Z,42.20
2018-05-13T21:08:49.355Z,42.90
2018-05-13T21:11:27.565Z,42.80
2018-05-13T21:14:04.365Z,43.10
2018-05-13T21:16:42.222Z,43.10
2018-05-13T21:19:18.534Z,43.50
2018-05-13T21:21:56.155Z,43.90
2018-05-13T21:24:34.337Z,44.30
2018-05-13T21:27:11.629Z,45.00
2018-05-13T21:29:48.277Z,46.00
2018-05-13T21:32:25.584Z,46.90
2018-05-13T21:35:02.818Z,46.90
2018-05-13T21:37:39.509Z,47.90
2018-05-13T21:40:16.522Z,48.30
2018-05-13T21:42:53.813Z,48.70
2018-05-13T21:45:31.711Z,48.90
2018-05-13T21:48:08.208Z,49.50
2018-05-13T21:50:47.453Z,49.40
2018-05-13T21:53:24.449Z,50.20
2018-05-13T21:56:01.154Z,50.80
2018-05-13T21:58:39.411Z,51.40
2018-05-13T22:01:16.362Z,51.50
2018-05-13T22:03:53.602Z,50.70
2018-05-13T22:06:31.510Z,52.20
2018-05-13T22:09:09.401Z,52.50
2018-05-13T22:11:46.743Z,53.20
2018-05-13T22:14:25.327Z,52.60
2018-05-13T22:17:02.788Z,51.40
2018-05-13T22:19:39.424Z,52.10
2018-05-13T22:22:15.936Z,52.60
2018-05-13T22:24:52.507Z,52.30
2018-05-13T22:27:28.885Z,52.50
2018-05-13T22:30:07.112Z,53.50
2018-05-13T22:32:44.085Z,53.90
2018-05-13T22:35:21.045Z,54.50
2018-05-13T22:37:57.858Z,54.80
2018-05-13T22:40:35.600Z,55.30
2018-05-13T22:43:15.403Z,55.70
2018-05-13T22:45:52.655Z,55.50
2018-05-13T22:48:30.089Z,56.30
2018-05-13T22:51:08.260Z,56.30
2018-05-13T22:53:44.566Z,56.50
2018-05-13T22:56:21.502Z,56.40
2018-05-13T22:58:59.009Z,56.50
2018-05-13T23:01:35.789Z,56.80
2018-05-13T23:04:12.207Z,57.30
2018-05-13T23:06:50.144Z,57.40
2018-05-13T23:09:27.328Z,57.10
2018-05-13T23:12:05.026Z,57.80
2018-05-13T23:14:42.169Z,57.70
2018-05-13T23:17:18.976Z,58.20
2018-05-13T23:19:56.137Z,58.20
2018-05-13T23:22:37.936Z,58.20
2018-05-13T23:25:14.338Z,58.30
2018-05-13T23:27:51.071Z,59.30
2018-05-13T23:30:27.672Z,58.90
2018-05-13T23:33:05.810Z,58.80
2018-05-13T23:35:43.764Z,58.70
2018-05-13T23:38:21.150Z,58.90
2018-05-13T23:40:57.821Z,58.90
2018-05-13T23:43:35.389Z,57.70
2018-05-13T23:46:13.009Z,57.90
2018-05-13T23:48:51.193Z,57.90
2018-05-13T23:51:27.686Z,57.70
2018-05-13T23:54:04.688Z,58.00
2018-05-13T23:56:41.313Z,58.20
2018-05-13T23:59:18.616Z,58.50
